Tiempo atmosférico en la estación meteorológica de San Andrés y Sauces, Santa Cruz de Tenerife (362 m.)



Fecha
DESCASC
Temp. máxima en grados centígrados (hora)
DESCASC
Temp. mínima en grados centígrados (hora)
DESCASC
Temp. media en grados centígrados
DESCASC
Racha de viento máxima en m/sg (hora)
DESCASC
Velocidad máxima media en intervalos de 10 minutos(hora)
DESCASC
Precipitaciones diarias en mm
DESCASC
Precipitaciones de 00:00 a 06:00 en mm
DESCASC
Precipitaciones de 06:00 a 12:00 en mm
DESCASC
Precipitaciones de 12:00 a 18:00 en mm
DESCASC
Precipitaciones de 18:00 a 24:00 en mm
DESCASC
25-04-2019 20.3 (15:00) 12.8 (08:00) 16.5 8.33 (03:20) 4.17 (07:50) 0 0 0 0 0
24-04-2019 18.7 (14:00) 13 (05:30) 15.9 11.11 (16:00) 6.39 (15:50) 0 0 0 0 0
23-04-2019 17.3 (10:30) 13.6 (23:59) 15.4 14.17 (02:30) 7.5 (16:00) 4.2 0 3.6 0.4 0.2
22-04-2019 24.4 (14:50) 12.3 (00:00) 18.3 15 (17:00) 7.78 (17:00) 0 0 0 0 0
21-04-2019 18.8 (14:00) 13.6 (00:00) 16.2 8.06 (23:59) 5.28 (22:30) 1 1 0 0 0
20-04-2019 18.5 (13:50) 13.6 (00:00) 16.1 8.06 (04:50) 5 (14:10) 0.6 0 0.4 0.2 0
19-04-2019 18.7 (15:50) 13.7 (00:00) 16.2 6.39 (14:30) 3.89 (22:00) 0 0 0 0 0
18-04-2019 18 (14:20) 13.7 (00:00) 15.8 9.72 (12:40) 5 (14:30) 0.2 0.2 0 0 0
17-04-2019 18.8 (11:50) 13.2 (00:00) 16 15.28 (12:00) 8.89 (12:10) 1.6 0 0.8 0 0.8
16-04-2019 16.5 (16:50) 13.3 (00:00) 14.9 6.67 (13:20) 4.44 (23:30) 4.6 4.6 0 0 0
15-04-2019 16.7 (05:30) 14.7 (00:00) 15.7 10.56 (00:50) 6.39 (00:50) 28.6 0 7.4 7.4 13.8
14-04-2019 21.7 (16:30) 13.6 (00:00) 17.7 11.39 (23:30) 5.83 (23:30) 0 0 0 0 0
13-04-2019 21 (13:40) 12.8 (00:00) 16.9 8.33 (14:10) 5.83 (14:10) 0 0 0 0 0
12-04-2019 19.7 (13:50) 13 (00:00) 16.4 8.33 (14:30) 5.28 (14:30) 0 0 0 0 0
11-04-2019 18.9 (13:30) 13 (00:00) 15.9 7.5 (14:20) 4.72 (05:10) 0 0 0 0 0
10-04-2019 18.8 (14:50) 12.7 (00:00) 15.7 6.67 (15:10) 3.89 (08:20) 0.2 0 0 0.2 0
09-04-2019 17.7 (09:50) 12.4 (00:00) 15.1 8.61 (14:10) 5.83 (14:10) 0.8 0 0 0.6 0.2
08-04-2019 18.6 (14:10) 12.8 (00:00) 15.7 8.33 (16:30) 4.72 (15:40) 1.4 1.4 0 0 0
07-04-2019 19.7 (11:50) 12.1 (00:00) 15.9 8.61 (13:40) 5 (13:40) 0 0 0 0 0
06-04-2019 17.2 (14:00) 12.2 (00:00) 14.7 10.28 (12:00) 6.67 (14:00) 0.6 0.6 0 0 0
05-04-2019 17 (11:50) 12.1 (00:00) 14.6 14.44 (17:20) 7.78 (12:00) 1.4 1 0 0.4 0
04-04-2019 15.3 (16:40) 12.3 (00:00) 13.8 10 (00:30) 6.11 (18:10) 20.2 6.2 13.6 0 0.4
03-04-2019 17.7 (13:30) 11.8 (00:00) 14.8 13.89 (13:10) 8.33 (15:50) 3 0 2.4 0.2 0.4
02-04-2019 14.1 (15:10) 10.7 (00:00) 12.4 7.5 (00:30) 4.72 (02:50) 8.2 5.6 0.8 1.8 0
01-04-2019 17.7 (11:30) 11.4 (00:00) 14.6 6.67 (00:20) 5 (21:40) 14.8 0 0 4.4 10.4
31-03-2019 16.2 (12:20) 13.1 (00:00) 14.7 10.56 (05:50) 6.39 (17:20) 1.2 0.6 0.4 0.2 0
30-03-2019 18.5 (16:10) 11.5 (00:00) 15 10.83 (23:30) 6.67 (23:50) 0.4 0 0.4 0 0
29-03-2019 18.8 (10:50) 11.4 (00:00) 15.1 8.06 (13:40) 5 (05:30) 4.8 0 0.2 4.6 0
28-03-2019 17.7 (10:00) 12.3 (00:00) 15 6.39 (10:10) 3.89 (07:40) 14.4 3 2.4 8.6 0.4
27-03-2019 19.3 (13:00) 13 (00:00) 16.1 8.89 (10:10) 5.83 (09:50) 26.6 0 0 0 26.6

Gráficas

Temp. máximas Temp. mínimas Temp. medias Precipitaciones Rachas de viento máximas Velocidades máximas media en intervalos de 10 minutos

Datos horarios

Fecha y hora oficial Temperatura (ºC) Velocidad del viento (km/h) Dirección del viento Racha (km/h) Dirección de racha Precipitación (mm) Presión (hPa) Tendencia (hPa) Humedad (%)
2019-04-25 23:00:00 15.1 9 Sudoeste 14 Oeste 0 -- -- 80
2019-04-25 22:00:00 15.1 10 Sudoeste 18 Oeste 0 -- -- 77
2019-04-25 21:00:00 15.7 12 Sudoeste 16 Sudoeste 0 -- -- 74
2019-04-25 20:00:00 16.6 4 Noroeste 10 Norte 0 -- -- 73
2019-04-25 19:00:00 17.5 6 Norte 16 Nordeste 0 -- -- 69
2019-04-25 18:00:00 19 13 Nordeste 19 Nordeste 0 -- -- 60
2019-04-25 17:00:00 19.7 8 Nordeste 19 Nordeste 0 -- -- 57
2019-04-25 16:00:00 19.8 11 Norte 19 Norte 0 -- -- 57
2019-04-25 15:00:00 20.3 7 Nordeste 23 Este 0 -- -- 59
2019-04-25 14:00:00 19.9 10 Nordeste 20 Este 0 -- -- 58
2019-04-25 13:00:00 19.3 6 Norte 22 Este 0 -- -- 57
2019-04-25 12:00:00 18.8 9 Sudeste 27 Nordeste 0 -- -- 58
2019-04-25 11:00:00 18.2 5 Norte 18 Nordeste 0 -- -- 62
2019-04-25 10:00:00 17.1 10 Nordeste 18 Nordeste 0 -- -- 69
2019-04-25 09:00:00 15.5 6 Noroeste 21 Sudoeste 0 -- -- 73
2019-04-25 08:00:00 12.8 15 Sudoeste 21 Sudoeste 0 -- -- 78
2019-04-25 07:00:00 13.1 15 Sudoeste 20 Sudoeste 0 -- -- 78
2019-04-25 06:00:00 13.6 12 Oeste 19 Noroeste 0 -- -- 80
2019-04-25 05:00:00 13.8 11 Oeste 22 Norte 0 -- -- 80
2019-04-25 04:00:00 13.7 12 Noroeste 30 Noroeste 0 -- -- 81
2019-04-25 03:00:00 13.7 13 Norte 23 Norte 0 -- -- 82
2019-04-25 02:00:00 12.9 8 Oeste 16 Oeste 0 -- -- 85
2019-04-25 01:00:00 13.1 5 Oeste 16 Oeste 0 -- -- 79
2019-04-25 00:00:00 13.7 10 Sudoeste 15 Oeste 0 -- -- 77
2019-04-24 23:00:00 13.5 8 Oeste 13 Sudoeste 0 -- -- 79
2019-04-24 22:00:00 13.6 6 Oeste 12 Sudoeste 0 -- -- 78
2019-04-24 21:00:00 14.5 4 Noroeste 25 Noroeste 0 -- -- 79
2019-04-24 20:00:00 15.2 8 Nordeste 22 Norte 0 -- -- 78
2019-04-24 19:00:00 16.9 12 Norte 30 Nordeste 0 -- -- 72
2019-04-24 18:00:00 17.5 17 Nordeste 37 Norte 0 -- -- 70
2019-04-24 17:00:00 17.7 20 Norte 38 Norte 0 -- -- 69
2019-04-24 16:00:00 17.4 21 Norte 40 Norte 0 -- -- 69
2019-04-24 15:00:00 18 18 Norte 36 Nordeste 0 -- -- 67
2019-04-24 14:00:00 18.7 15 Norte 36 Norte 0 -- -- 68
2019-04-24 13:00:00 18.5 17 Nordeste 32 Norte 0 -- -- 69
2019-04-24 12:00:00 18.1 17 Nordeste 31 Norte 0 -- -- 70
2019-04-24 11:00:00 17.3 19 Norte 30 Norte 0 -- -- 72
2019-04-24 10:00:00 16.8 12 Nordeste 24 Norte 0 -- -- 74
2019-04-24 09:00:00 15.6 13 Norte 19 Norte 0 -- -- 75
2019-04-24 08:00:00 13.7 13 Noroeste 26 Norte 0 -- -- 74
2019-04-24 07:00:00 13.2 11 Norte 25 Noroeste 0 -- -- 74
2019-04-24 06:00:00 13.2 9 Noroeste 28 Nordeste 0 -- -- 77
2019-04-24 05:00:00 13.3 17 Norte 28 Norte 0 -- -- 83
2019-04-24 04:00:00 13.3 10 Norte 30 Noroeste 0 -- -- 79
2019-04-24 03:00:00 13.7 14 Noroeste 32 Noroeste 0 -- -- 78
2019-04-24 02:00:00 13.4 15 Noroeste 26 Oeste 0 -- -- 80
2019-04-24 01:00:00 13.4 10 Noroeste 26 Noroeste 0 -- -- 82
2019-04-24 00:00:00 13.6 11 Noroeste 29 Noroeste 0 -- -- 81
2019-04-23 23:00:00 13.9 13 Norte 28 Noroeste 0 -- -- 79
2019-04-23 22:00:00 13.9 10 Noroeste 27 Noroeste 0 -- -- 85
2019-04-23 21:00:00 13.8 13 Noroeste 32 Norte 0.2 -- -- 87
2019-04-23 20:00:00 14.8 16 Norte 35 Noroeste 0 -- -- 79
2019-04-23 19:00:00 15.1 25 Norte 39 Norte 0 -- -- 73
2019-04-23 18:00:00 15.9 20 Norte 44 Norte 0 -- -- 73
2019-04-23 17:00:00 16.4 24 Norte 40 Norte 0 -- -- 72
2019-04-23 16:00:00 16.4 27 Norte 49 Norte 0 -- -- 74
2019-04-23 15:00:00 17.3 22 Norte 46 Norte 0 -- -- 74
2019-04-23 14:00:00 16.1 19 Norte 40 Norte 0.2 -- -- 84
2019-04-23 13:00:00 15.2 14 Norte 39 Noroeste 0.2 -- -- 90
2019-04-23 12:00:00 14.8 20 Norte 41 Norte 3.4 -- -- 96
2019-04-23 11:00:00 15.9 23 Norte 47 Noroeste 0.2 -- -- 90
2019-04-23 10:00:00 17.2 21 Noroeste 45 Noroeste 0 -- -- 78
2019-04-23 09:00:00 16.7 14 Noroeste 36 Oeste 0 -- -- 70
2019-04-23 08:00:00 16 22 Oeste 41 Noroeste 0 -- -- 69
2019-04-23 07:00:00 15.3 15 Norte 34 Noroeste 0 -- -- 75
2019-04-23 06:00:00 14.8 14 Norte 37 Noroeste 0 -- -- 82
2019-04-23 05:00:00 14.9 12 Norte 31 Noroeste 0 -- -- 77
2019-04-23 04:00:00 15 11 Norte 34 Noroeste 0 -- -- 77
2019-04-23 03:00:00 15.2 18 Noroeste 51 Noroeste 0 -- -- 75
2019-04-23 02:00:00 15.4 21 Noroeste 50 Noroeste 0 -- -- 78
2019-04-23 01:00:00 14.8 25 Noroeste 47 Noroeste 0 -- -- 82
2019-04-23 00:00:00 14.8 13 Noroeste 32 Oeste 0 -- -- 81
2019-04-22 23:00:00 14.7 13 Norte 33 Norte 0 -- -- 82
2019-04-22 22:00:00 14.7 7 Nordeste 22 Nordeste 0 -- -- 85
2019-04-22 21:00:00 15.2 2 Este 14 Nordeste 0 -- -- 83
2019-04-22 20:00:00 16.6 7 Sur 36 Sudoeste 0 -- -- 80
2019-04-22 19:00:00 17.5 16 Sudoeste 48 Noroeste 0 -- -- 72
2019-04-22 18:00:00 18.3 23 Oeste 50 Noroeste 0 -- -- 69
2019-04-22 17:00:00 19.2 28 Oeste 54 Oeste 0 -- -- 65
2019-04-22 16:00:00 22.2 19 Oeste 44 Oeste 0 -- -- 47
2019-04-22 15:00:00 23.7 10 Norte 37 Oeste 0 -- -- 48
2019-04-22 14:00:00 21.8 14 Noroeste 39 Oeste 0 -- -- 45
2019-04-22 13:00:00 21.1 10 Nordeste 28 Norte 0 -- -- 63
2019-04-22 12:00:00 19.9 14 Nordeste 30 Norte 0 -- -- 69
2019-04-22 11:00:00 19.9 7 Este 17 Este 0 -- -- 68
2019-04-22 10:00:00 18 7 Este 29 Norte 0 -- -- 74
2019-04-22 09:00:00 15.2 12 Norte 24 Norte 0 -- -- 82
2019-04-22 08:00:00 13.1 7 Oeste 14 Sudoeste 0 -- -- 85
2019-04-22 07:00:00 12.6 6 Sudoeste 10 Sudoeste 0 -- -- 88
2019-04-22 06:00:00 12.9 5 Sudoeste 9 Sudoeste 0 -- -- 87
2019-04-22 05:00:00 13 5 Noroeste 13 Norte 0 -- -- 89
2019-04-22 04:00:00 13.2 4 Sudoeste 34 Norte 0 -- -- 87
2019-04-22 03:00:00 14.2 22 Norte 33 Norte 0 -- -- 88
2019-04-22 02:00:00 14.5 16 Noroeste 33 Norte 0 -- -- 84
2019-04-22 01:00:00 14.1 13 Norte 28 Norte 0 -- -- 89
2019-04-22 00:00:00 14.5 17 Norte 29 Norte 0 -- -- 89
2019-04-21 23:00:00 14.9 16 Norte 25 Nordeste 0 -- -- 90
2019-04-21 22:00:00 15.1 15 Norte 27 Norte 0 -- -- 90
2019-04-21 21:00:00 15.2 15 Norte 22 Norte 0 -- -- 90
2019-04-21 20:00:00 15.7 12 Norte 19 Norte 0 -- -- 86
2019-04-21 19:00:00 15.9 14 Norte 21 Norte 0 -- -- 85
2019-04-21 18:00:00 16 12 Norte 24 Norte 0 -- -- 84
2019-04-21 17:00:00 16.8 12 Norte 24 Nordeste 0 -- -- 82
2019-04-21 16:00:00 18 14 Nordeste 27 Nordeste 0 -- -- 77
2019-04-21 15:00:00 18.3 16 Nordeste 26 Nordeste 0 -- -- 74
2019-04-21 14:00:00 18.8 16 Nordeste 27 Nordeste 0 -- -- 63
2019-04-21 13:00:00 18.6 15 Nordeste 24 Nordeste 0 -- -- 71
2019-04-21 12:00:00 16.5 12 Norte 20 Nordeste 0 -- -- 80
2019-04-21 11:00:00 15.6 8 Noroeste 18 Norte 0 -- -- 82
2019-04-21 10:00:00 16.7 10 Norte 17 Noroeste 0 -- -- 77
2019-04-21 09:00:00 15 6 Noroeste 13 Norte 0 -- -- 84
2019-04-21 08:00:00 14.2 8 Oeste 14 Oeste 0 -- -- 88
2019-04-21 07:00:00 14.2 5 Noroeste 17 Noroeste 0 -- -- 88
2019-04-21 06:00:00 14 8 Noroeste 22 Sudoeste 0 -- -- 87
2019-04-21 05:00:00 14 14 Sudoeste 20 Sudoeste 0 -- -- 83
2019-04-21 04:00:00 14.1 6 Oeste 15 Oeste 0 -- -- 90
2019-04-21 03:00:00 14.1 9 Oeste 17 Noroeste 0 -- -- 89
2019-04-21 02:00:00 14.1 7 Oeste 14 Noroeste 0 -- -- 91
2019-04-21 01:00:00 13.8 7 Oeste 21 Sudoeste 1 -- -- 92
2019-04-21 00:00:00 14.2 10 Sudoeste 16 Sudoeste 0 -- -- 89
2019-04-20 23:00:00 14.5 6 Noroeste 14 Nordeste 0 -- -- 85
2019-04-20 22:00:00 14.6 6 Norte 16 Norte 0 -- -- 84
2019-04-20 21:00:00 14.7 9 Norte 24 Nordeste 0 -- -- 86
2019-04-20 20:00:00 14.8 11 Norte 21 Norte 0 -- -- 85
2019-04-20 19:00:00 15.8 10 Noroeste 18 Nordeste 0 -- -- 77
2019-04-20 18:00:00 16.1 7 Norte 15 Noroeste 0 -- -- 76
2019-04-20 17:00:00 15.3 9 Norte 22 Este 0.2 -- -- 85
2019-04-20 16:00:00 16.5 10 Nordeste 26 Norte 0 -- -- 76
2019-04-20 15:00:00 17.2 12 Norte 28 Nordeste 0 -- -- 72
2019-04-20 14:00:00 18.3 17 Nordeste 27 Nordeste 0 -- -- 70
2019-04-20 13:00:00 18.1 14 Nordeste 26 Nordeste 0 -- -- 66
2019-04-20 12:00:00 15.1 6 Nordeste 25 Nordeste 0.2 -- -- 79
2019-04-20 11:00:00 15.1 10 Norte 19 Norte 0 -- -- 77
2019-04-20 10:00:00 14.3 9 Oeste 16 Norte 0 -- -- 86
2019-04-20 09:00:00 13.6 8 Oeste 19 Noroeste 0.2 -- -- 88
2019-04-20 08:00:00 13.9 5 Noroeste 20 Norte 0 -- -- 89
2019-04-20 07:00:00 14.6 8 Sudoeste 19 Oeste 0 -- -- 74
2019-04-20 06:00:00 14.4 9 Oeste 21 Sudoeste 0 -- -- 73
2019-04-20 05:00:00 14.3 11 Noroeste 29 Noroeste 0 -- -- 78
2019-04-20 04:00:00 14.4 10 Norte 19 Norte 0 -- -- 84
2019-04-20 03:00:00 14.6 9 Norte 27 Noroeste 0 -- -- 86
2019-04-20 02:00:00 14.9 10 Noroeste 26 Oeste 0 -- -- 82
2019-04-20 01:00:00 15.1 9 Noroeste 20 Oeste 0 -- -- 76
2019-04-20 00:00:00 15.1 10 Oeste 19 Noroeste 0 -- -- 74
2019-04-19 23:00:00 14.5 9 Oeste 22 Oeste 0 -- -- 79
2019-04-19 22:00:00 14.7 14 Oeste 23 Oeste 0 -- -- 77
2019-04-19 21:00:00 14.6 11 Oeste 21 Sudoeste 0 -- -- 75
2019-04-19 20:00:00 15.1 7 Noroeste 18 Nordeste 0 -- -- 73
2019-04-19 19:00:00 15.9 7 Noroeste 22 Nordeste 0 -- -- 77
2019-04-19 18:00:00 16.4 11 Norte 21 Nordeste 0 -- -- 74
2019-04-19 17:00:00 17.7 6 Norte 22 Este 0 -- -- 69
2019-04-19 16:00:00 18.3 8 Norte 22 Nordeste 0 -- -- 62
2019-04-19 15:00:00 17.8 7 Nordeste 23 Nordeste 0 -- -- 66
2019-04-19 14:00:00 17.4 9 Nordeste 20 Nordeste 0 -- -- 70
2019-04-19 13:00:00 17.4 5 Nordeste 23 Este 0 -- -- 63
2019-04-19 12:00:00 17.1 5 Nordeste 22 Este 0 -- -- 63
2019-04-19 11:00:00 17.1 6 Este 17 Nordeste 0 -- -- 69
2019-04-19 10:00:00 15.9 9 Nordeste 18 Nordeste 0 -- -- 72
2019-04-19 09:00:00 14.6 8 Nordeste 15 Nordeste 0 -- -- 83
2019-04-19 08:00:00 13.9 6 Norte 12 Sudoeste 0 -- -- 86
2019-04-19 07:00:00 13.9 4 Noroeste 17 Sudoeste 0 -- -- 85
2019-04-19 06:00:00 13.9 11 Oeste 19 Sudoeste 0 -- -- 80
2019-04-19 05:00:00 13.9 9 Oeste 14 Oeste 0 -- -- 82
2019-04-19 04:00:00 14.1 4 Noroeste 14 Noroeste 0 -- -- 82
2019-04-19 03:00:00 14.2 8 Oeste 15 Oeste 0 -- -- 75
2019-04-19 02:00:00 14.4 8 Oeste 21 Noroeste 0 -- -- 83
2019-04-19 01:00:00 14.2 9 Noroeste 18 Noroeste 0 -- -- 81
2019-04-19 00:00:00 14.4 8 Noroeste 19 Noroeste 0 -- -- 83
2019-04-18 23:00:00 14.4 9 Noroeste 18 Oeste 0 -- -- 82
2019-04-18 22:00:00 14.4 7 Oeste 17 Noroeste 0 -- -- 83
2019-04-18 21:00:00 14.4 10 Noroeste 16 Noroeste 0 -- -- 82
2019-04-18 20:00:00 14.7 8 Norte 17 Norte 0 -- -- 80
2019-04-18 19:00:00 15.1 13 Norte 21 Nordeste 0 -- -- 79
2019-04-18 18:00:00 16.2 11 Norte 25 Nordeste 0 -- -- 75
2019-04-18 17:00:00 17 12 Norte 26 Norte 0 -- -- 70
2019-04-18 16:00:00 17.4 15 Nordeste 27 Nordeste 0 -- -- 71
2019-04-18 15:00:00 17.3 15 Nordeste 28 Nordeste 0 -- -- 73
2019-04-18 14:00:00 17.8 16 Nordeste 27 Nordeste 0 -- -- 70
2019-04-18 13:00:00 17.4 15 Nordeste 35 Nordeste 0 -- -- 70
2019-04-18 12:00:00 16.8 18 Nordeste 29 Norte 0 -- -- 70
2019-04-18 11:00:00 16.1 13 Nordeste 24 Norte 0 -- -- 76
2019-04-18 10:00:00 16.2 13 Norte 21 Norte 0 -- -- 76
2019-04-18 09:00:00 15.1 6 Noroeste 21 Noroeste 0 -- -- 71
2019-04-18 08:00:00 13.9 9 Noroeste 23 Noroeste 0 -- -- 80
2019-04-18 07:00:00 13.8 9 Noroeste 19 Noroeste 0 -- -- 81
2019-04-18 06:00:00 13.9 8 Oeste 23 Noroeste 0 -- -- 83
2019-04-18 05:00:00 13.9 13 Noroeste 26 Noroeste 0 -- -- 81
2019-04-18 04:00:00 14 10 Noroeste 21 Noroeste 0 -- -- 82
2019-04-18 03:00:00 13.9 11 Noroeste 22 Noroeste 0 -- -- 84
2019-04-18 02:00:00 14.2 9 Noroeste 22 Oeste 0 -- -- 84
2019-04-18 01:00:00 14.1 12 Noroeste 24 Noroeste 0.2 -- -- 83
2019-04-18 00:00:00 14.3 13 Oeste 22 Norte 0 -- -- 84
2019-04-17 23:00:00 14.2 12 Noroeste 27 Noroeste 0.8 -- -- 85
2019-04-17 22:00:00 14.8 13 Noroeste 21 Norte 0 -- -- 80
2019-04-17 21:00:00 14.9 9 Noroeste 26 Norte 0 -- -- 81
2019-04-17 20:00:00 15.3 13 Norte 27 Norte 0 -- -- 80
2019-04-17 19:00:00 15.9 14 Noroeste 31 Noroeste 0 -- -- 76
2019-04-17 18:00:00 16.9 12 Noroeste 41 Norte 0 -- -- 75
2019-04-17 17:00:00 17.9 15 Norte 42 Norte 0 -- -- 69
2019-04-17 16:00:00 17.9 23 Norte 45 Norte 0 -- -- 67
2019-04-17 15:00:00 16.7 25 Norte 51 Norte 0 -- -- 62
2019-04-17 14:00:00 16.5 28 Norte 48 Norte 0 -- -- 72
2019-04-17 13:00:00 17.2 15 Norte 51 Norte 0 -- -- 72
2019-04-17 12:00:00 18 28 Norte 55 Noroeste 0 -- -- 76
2019-04-17 11:00:00 17.3 14 Noroeste 48 Norte 0 -- -- 76
2019-04-17 10:00:00 16 17 Noroeste 40 Oeste 0 -- -- 81
2019-04-17 09:00:00 15.1 23 Noroeste 36 Noroeste 0.8 -- -- 83
2019-04-17 08:00:00 14.6 2 Sur 12 Sudoeste 0 -- -- 88
2019-04-17 07:00:00 14.3 10 Sudoeste 14 Sudoeste 0 -- -- 87
2019-04-17 06:00:00 14.1 4 Noroeste 9 Noroeste 0 -- -- 86
2019-04-17 05:00:00 13.9 5 Oeste 19 Sudoeste 0 -- -- 82
2019-04-17 04:00:00 13.4 11 Oeste 17 Sudoeste 0 -- -- 84
2019-04-17 03:00:00 13.3 5 Oeste 19 Sudoeste 0 -- -- 85
2019-04-17 02:00:00 13.6 13 Sudoeste 21 Sudoeste 0 -- -- 80
2019-04-17 01:00:00 13.2 14 Sudoeste 19 Sudoeste 0 -- -- 82
2019-04-17 00:00:00 13.6 16 Sudoeste 20 Sudoeste 0 -- -- 81
2019-04-16 23:00:00 13.7 12 Sudoeste 20 Sudoeste 0 -- -- 78
2019-04-16 22:00:00 14.3 9 Sudoeste 15 Oeste 0 -- -- 86
2019-04-16 21:00:00 15 7 Oeste 11 Sudoeste 0 -- -- 87
2019-04-16 20:00:00 16 9 Sudoeste 12 Sudoeste 0 -- -- 83
2019-04-16 19:00:00 16.2 6 Sudoeste 12 Sudoeste 0 -- -- 81
2019-04-16 18:00:00 16.3 3 Noroeste 12 Norte 0 -- -- 79
2019-04-16 17:00:00 16.4 6 Norte 13 Norte 0 -- -- 79
2019-04-16 16:00:00 16 7 Oeste 23 Noroeste 0 -- -- 80
2019-04-16 15:00:00 16.2 9 Oeste 17 Noroeste 0 -- -- 83
2019-04-16 14:00:00 16.4 7 Oeste 24 Oeste 0 -- -- 84
2019-04-16 13:00:00 16.3 13 Oeste 23 Sudoeste 0 -- -- 86
2019-04-16 12:00:00 16 12 Oeste 21 Oeste 0 -- -- 85
2019-04-16 11:00:00 15.9 8 Nordeste 13 Nordeste 0 -- -- 93
2019-04-16 10:00:00 16 2 Nordeste 9 Sudeste 0 -- -- 89
2019-04-16 09:00:00 15 5 Sur 9 Sudoeste 0 -- -- 90
2019-04-16 08:00:00 14.1 7 Sudoeste 13 Sudoeste 0 -- -- 93
2019-04-16 07:00:00 14.2 8 Sudoeste 11 Sudoeste 0 -- -- 92
2019-04-16 06:00:00 14.4 5 Sudoeste 13 Oeste 0 -- -- 93
2019-04-16 05:00:00 14.4 7 Oeste 13 Sudoeste 0 -- -- 95
2019-04-16 04:00:00 14.5 10 Sudoeste 14 Sudoeste 0.6 -- -- 95
2019-04-16 03:00:00 14.8 2 Oeste 6 Sudoeste 0.4 -- -- 97
2019-04-16 02:00:00 14.9 3 Sudoeste 9 Sudoeste 1.2 -- -- 97
2019-04-16 01:00:00 14.8 7 Sudoeste 10 Sudoeste 2.4 -- -- 98
2019-04-16 00:00:00 14.7 4 Nordeste 13 Nordeste 3.2 -- -- 99
2019-04-15 23:00:00 14.9 3 Nordeste 10 Nordeste 5.4 -- -- 98
2019-04-15 22:00:00 14.9 2 Sur 14 Este 4 -- -- 98
2019-04-15 21:00:00 15 3 Sudoeste 6 Nordeste 0.6 -- -- 97
2019-04-15 20:00:00 15.2 3 Nordeste 6 Este 0.2 -- -- 97
2019-04-15 19:00:00 15.3 4 Nordeste 10 Nordeste 0.4 -- -- 98
2019-04-15 18:00:00 15.8 3 Norte 11 Sur 0.4 -- -- 94
2019-04-15 17:00:00 15.8 5 Sur 16 Este 3 -- -- 95
2019-04-15 16:00:00 16.3 4 Este 19 Este 1.2 -- -- 97
2019-04-15 15:00:00 16.1 7 Nordeste 21 Este 0.6 -- -- 97
2019-04-15 14:00:00 16.2 10 Este 22 Nordeste 1.4 -- -- 98
2019-04-15 13:00:00 15.7 7 Nordeste 22 Este 0.8 -- -- 98
2019-04-15 12:00:00 15.5 11 Nordeste 23 Nordeste 3.8 -- -- 98
2019-04-15 11:00:00 15.3 12 Nordeste 21 Nordeste 3.6 -- -- 97
2019-04-15 10:00:00 15.9 8 Norte 13 Norte 0 -- -- 95
2019-04-15 09:00:00 16.5 6 Nordeste 9 Nordeste 0 -- -- 90
2019-04-15 08:00:00 15.3 5 Sudoeste 9 Norte 0 -- -- 86
2019-04-15 07:00:00 15.8 5 Nordeste 15 Norte 0 -- -- 82
2019-04-15 06:00:00 16.5 10 Norte 23 Noroeste 0 -- -- 76
2019-04-15 05:00:00 16.4 14 Noroeste 23 Noroeste 0 -- -- 76
2019-04-15 04:00:00 16.3 12 Noroeste 30 Oeste 0 -- -- 75
2019-04-15 03:00:00 15.9 14 Oeste 27 Noroeste 0 -- -- 75
2019-04-15 02:00:00 15.5 11 Noroeste 34 Noroeste 0 -- -- 76
2019-04-15 01:00:00 15.9 17 Noroeste 38 Noroeste 0 -- -- 75
2019-04-15 00:00:00 16.4 19 Noroeste 41 Noroeste 0 -- -- 63
2019-04-14 23:00:00 15.1 9 Noroeste 23 Norte 0 -- -- 72
2019-04-14 22:00:00 14.9 5 Oeste 12 Sudoeste 0 -- -- 86
2019-04-14 21:00:00 16 4 Este 11 Sur 0 -- -- 81
2019-04-14 20:00:00 16.8 5 Sudeste 29 Noroeste 0 -- -- 81
2019-04-14 19:00:00 17.4 9 Noroeste 22 Noroeste 0 -- -- 76
2019-04-14 18:00:00 19 11 Este 23 Este 0 -- -- 74
2019-04-14 17:00:00 20.9 13 Este 22 Este 0 -- -- 66
2019-04-14 16:00:00 21.1 12 Este 25 Este 0 -- -- 64
2019-04-14 15:00:00 19.8 10 Oeste 26 Este 0 -- -- 68
2019-04-14 14:00:00 20.4 15 Este 27 Nordeste 0 -- -- 66
2019-04-14 13:00:00 19.9 12 Nordeste 21 Este 0 -- -- 67
2019-04-14 12:00:00 19.5 11 Nordeste 21 Este 0 -- -- 67
2019-04-14 11:00:00 18.4 7 Sudeste 19 Este 0 -- -- 70
2019-04-14 10:00:00 17.6 10 Este 16 Este 0 -- -- 73
2019-04-14 09:00:00 15.4 8 Sur 21 Sudoeste 0 -- -- 80
2019-04-14 08:00:00 13.6 13 Sudoeste 18 Sudoeste 0 -- -- 83
2019-04-14 07:00:00 13.6 12 Sudoeste 23 Sudoeste 0 -- -- 85
2019-04-14 06:00:00 13.9 12 Sudoeste 23 Sudoeste 0 -- -- 85
2019-04-14 05:00:00 13.8 12 Sudoeste 22 Sur 0 -- -- 86
2019-04-14 04:00:00 13.8 13 Sudoeste 18 Sudoeste 0 -- -- 82
2019-04-14 03:00:00 14.3 12 Sudoeste 18 Sudoeste 0 -- -- 81
2019-04-14 02:00:00 14.6 10 Sudoeste 18 Sudoeste 0 -- -- 85
2019-04-14 01:00:00 14.8 7 Sudoeste 16 Sudoeste 0 -- -- 82
2019-04-14 00:00:00 15.1 4 Sur 14 Sudoeste 0 -- -- 84
2019-04-13 23:00:00 14.8 8 Sudoeste 14 Sudoeste 0 -- -- 82
2019-04-13 22:00:00 14.8 10 Sudoeste 13 Sudoeste 0 -- -- 82
2019-04-13 21:00:00 14.9 5 Sur 15 Este 0 -- -- 86
2019-04-13 20:00:00 15.6 9 Este 18 Nordeste 0 -- -- 81
2019-04-13 19:00:00 16.4 12 Este 22 Este 0 -- -- 79
2019-04-13 18:00:00 17.2 13 Este 23 Este 0 -- -- 75
2019-04-13 17:00:00 17.5 16 Este 28 Este 0 -- -- 74
2019-04-13 16:00:00 19.3 18 Este 27 Este 0 -- -- 69
2019-04-13 15:00:00 18.2 12 Sudeste 30 Este 0 -- -- 68
2019-04-13 14:00:00 20 13 Este 30 Este 0 -- -- 67
2019-04-13 13:00:00 20.6 19 Este 30 Este 0 -- -- 61
2019-04-13 12:00:00 19.4 18 Este 27 Este 0 -- -- 66
2019-04-13 11:00:00 17.4 12 Sudeste 20 Este 0 -- -- 72
2019-04-13 10:00:00 15.2 9 Este 18 Sur 0 -- -- 78
2019-04-13 09:00:00 14.1 12 Sudoeste 19 Sudoeste 0 -- -- 80
2019-04-13 08:00:00 13.4 13 Sudoeste 17 Sudoeste 0 -- -- 82
2019-04-13 07:00:00 13.4 12 Sudoeste 18 Sudoeste 0 -- -- 80
2019-04-13 06:00:00 13.4 13 Sudoeste 19 Sudoeste 0 -- -- 78
2019-04-13 05:00:00 14.3 7 Sudoeste 28 Sudoeste 0 -- -- 76
2019-04-13 04:00:00 14 14 Sudoeste 19 Sudoeste 0 -- -- 79
2019-04-13 03:00:00 13.9 13 Sudoeste 17 Sudoeste 0 -- -- 82
2019-04-13 02:00:00 13.9 12 Sudoeste 24 Sudoeste 0 -- -- 80
2019-04-13 01:00:00 13.3 13 Sudoeste 16 Sudoeste 0 -- -- 84
2019-04-13 00:00:00 13 10 Sudoeste 13 Sudoeste 0 -- -- 85
2019-04-12 23:00:00 13 6 Oeste 12 Sudoeste 0 -- -- 86
2019-04-12 22:00:00 13.8 6 Sudoeste 9 Sudoeste 0 -- -- 83
2019-04-12 21:00:00 13.6 7 Sudoeste 10 Sudoeste 0 -- -- 84
2019-04-12 20:00:00 14.8 2 Noroeste 12 Nordeste 0 -- -- 80
2019-04-12 19:00:00 15.8 9 Nordeste 17 Este 0 -- -- 70
2019-04-12 18:00:00 16.3 10 Este 23 Este 0 -- -- 73
2019-04-12 17:00:00 16.7 15 Nordeste 24 Este 0 -- -- 73
2019-04-12 16:00:00 17.3 15 Nordeste 26 Este 0 -- -- 69
2019-04-12 15:00:00 19.2 15 Este 30 Este 0 -- -- 62
2019-04-12 14:00:00 19.5 15 Este 23 Este 0 -- -- 57
2019-04-12 13:00:00 19 12 Este 24 Este 0 -- -- 64
2019-04-12 12:00:00 18 14 Este 22 Este 0 -- -- 66
2019-04-12 11:00:00 15.9 11 Este 18 Este 0 -- -- 76
2019-04-12 10:00:00 15.4 9 Sur 14 Sudoeste 0 -- -- 67
2019-04-12 09:00:00 13.5 13 Sudoeste 17 Sudoeste 0 -- -- 75
2019-04-12 08:00:00 13.1 9 Sudoeste 15 Oeste 0 -- -- 76
2019-04-12 07:00:00 13.4 4 Oeste 14 Sudoeste 0 -- -- 81
2019-04-12 06:00:00 13.8 10 Sudoeste 17 Sudoeste 0 -- -- 78
2019-04-12 05:00:00 13.7 6 Oeste 16 Sudoeste 0 -- -- 76
2019-04-12 04:00:00 13.4 10 Oeste 18 Sudoeste 0 -- -- 78
2019-04-12 03:00:00 13.1 12 Sudoeste 19 Sudoeste 0 -- -- 78
2019-04-12 02:00:00 13.4 9 Sudoeste 13 Sudoeste 0 -- -- 79
2019-04-12 01:00:00 14 3 Sudoeste 16 Sudoeste 0 -- -- 81
2019-04-12 00:00:00 14 12 Oeste 18 Sudoeste 0 -- -- 75
2019-04-11 23:00:00 13.8 10 Sudoeste 17 Sudoeste 0 -- -- 79
2019-04-11 22:00:00 13.8 5 Oeste 13 Sudoeste 0 -- -- 78
2019-04-11 21:00:00 14.2 8 Sudoeste 14 Nordeste 0 -- -- 78
2019-04-11 20:00:00 14.6 11 Norte 18 Nordeste 0 -- -- 74
2019-04-11 19:00:00 15.1 9 Norte 18 Nordeste 0 -- -- 74
2019-04-11 18:00:00 16.2 12 Nordeste 24 Nordeste 0 -- -- 71
2019-04-11 17:00:00 18.1 12 Nordeste 22 Nordeste 0 -- -- 68
2019-04-11 16:00:00 17.5 10 Este 26 Este 0 -- -- 67
2019-04-11 15:00:00 18.3 8 Sur 27 Nordeste 0 -- -- 59
2019-04-11 14:00:00 18.9 15 Este 25 Nordeste 0 -- -- 57
2019-04-11 13:00:00 18.4 12 Este 22 Este 0 -- -- 60
2019-04-11 12:00:00 17.9 9 Este 25 Nordeste 0 -- -- 61
2019-04-11 11:00:00 18.1 14 Este 18 Nordeste 0 -- -- 60
2019-04-11 10:00:00 14.4 11 Sudoeste 21 Sudoeste 0 -- -- 71
2019-04-11 09:00:00 13.7 6 Oeste 12 Sudoeste 0 -- -- 74
2019-04-11 08:00:00 13.3 8 Sudoeste 18 Sudoeste 0 -- -- 77
2019-04-11 07:00:00 13.3 11 Sudoeste 17 Sudoeste 0 -- -- 76
2019-04-11 06:00:00 13 13 Sudoeste 23 Sudoeste 0 -- -- 77
2019-04-11 05:00:00 13.3 14 Sudoeste 20 Sudoeste 0 -- -- 77
2019-04-11 04:00:00 13.8 6 Sudoeste 10 Sudoeste 0 -- -- 76
2019-04-11 03:00:00 14 7 Sudeste 18 Sudoeste 0 -- -- 81
2019-04-11 02:00:00 13.5 13 Sudoeste 15 Sudoeste 0 -- -- 81
2019-04-11 01:00:00 13.9 6 Sudoeste 15 Sudoeste 0 -- -- 81
2019-04-11 00:00:00 13.8 7 Sudoeste 14 Sudoeste 0 -- -- 81
2019-04-10 23:00:00 14.2 4 Sudoeste 11 Este 0 -- -- 78
2019-04-10 22:00:00 14.5 6 Nordeste 17 Sudeste 0 -- -- 79
2019-04-10 21:00:00 14.8 7 Sudeste 12 Este 0 -- -- 81
2019-04-10 20:00:00 15.2 4 Nordeste 10 Norte 0 -- -- 75
2019-04-10 19:00:00 15.6 8 Este 17 Este 0 -- -- 72
2019-04-10 18:00:00 16.9 6 Este 20 Nordeste 0 -- -- 65
2019-04-10 17:00:00 17.2 11 Nordeste 17 Nordeste 0 -- -- 65
2019-04-10 16:00:00 16.7 9 Nordeste 24 Nordeste 0 -- -- 68
2019-04-10 15:00:00 18.2 14 Nordeste 23 Nordeste 0.2 -- -- 65
2019-04-10 14:00:00 17.1 9 Nordeste 17 Este 0 -- -- 68
2019-04-10 13:00:00 15.2 9 Este 18 Este 0 -- -- 78
2019-04-10 12:00:00 14.8 10 Nordeste 19 Nordeste 0 -- -- 82
2019-04-10 11:00:00 14.8 8 Este 16 Este 0 -- -- 83
2019-04-10 10:00:00 14.8 5 Sudeste 17 Sudoeste 0 -- -- 76
2019-04-10 09:00:00 14.1 13 Sudoeste 19 Sudoeste 0 -- -- 74
2019-04-10 08:00:00 13 9 Sudoeste 14 Sudoeste 0 -- -- 86
2019-04-10 07:00:00 13.1 9 Sudoeste 16 Sudoeste 0 -- -- 87
2019-04-10 06:00:00 13.3 5 Oeste 10 Oeste 0 -- -- 85
2019-04-10 05:00:00 13.3 7 Oeste 14 Sudoeste 0 -- -- 86
2019-04-10 04:00:00 13.5 6 Noroeste 16 Noroeste 0 -- -- 86
2019-04-10 03:00:00 13.8 4 Oeste 10 Sudeste 0 -- -- 87
2019-04-10 02:00:00 13.8 3 Oeste 9 Sudoeste 0 -- -- 88
2019-04-10 01:00:00 13.6 7 Sudoeste 17 Sudoeste 0 -- -- 85
2019-04-10 00:00:00 14.1 6 Sudoeste 11 Sudoeste 0 -- -- 91
2019-04-09 23:00:00 14.2 7 Sudoeste 11 Sudoeste 0 -- -- 90
2019-04-09 22:00:00 14.4 4 Sur 13 Este 0 -- -- 90
2019-04-09 21:00:00 14.5 10 Nordeste 18 Este 0 -- -- 89
2019-04-09 20:00:00 14.7 13 Nordeste 21 Este 0 -- -- 91
2019-04-09 19:00:00 14.7 13 Nordeste 20 Nordeste 0.2 -- -- 90
2019-04-09 18:00:00 15.2 10 Este 23 Este 0.2 -- -- 88
2019-04-09 17:00:00 15.5 13 Nordeste 27 Nordeste 0 -- -- 85
2019-04-09 16:00:00 15.6 17 Este 28 Este 0 -- -- 92
2019-04-09 15:00:00 16 18 Este 31 Nordeste 0 -- -- 90
2019-04-09 14:00:00 16.1 18 Este 28 Este 0 -- -- 92
2019-04-09 13:00:00 16.7 3 Nordeste 10 Este 0.4 -- -- 84
2019-04-09 12:00:00 16.1 3 Nordeste 19 Nordeste 0 -- -- 84
2019-04-09 11:00:00 17.2 13 Nordeste 18 Nordeste 0 -- -- 82
2019-04-09 10:00:00 17.3 8 Nordeste 12 Nordeste 0 -- -- 78
2019-04-09 09:00:00 16.4 4 Nordeste 18 Sudoeste 0 -- -- 70
2019-04-09 08:00:00 14.2 12 Sudoeste 26 Sudoeste 0 -- -- 72
2019-04-09 07:00:00 13.5 8 Sudoeste 23 Sudoeste 0 -- -- 79
2019-04-09 06:00:00 14.3 13 Sudoeste 24 Sudoeste 0 -- -- 74
2019-04-09 05:00:00 13.5 12 Sudoeste 18 Sudoeste 0 -- -- 78
2019-04-09 04:00:00 12.5 9 Sudoeste 14 Sudoeste 0 -- -- 81
2019-04-09 03:00:00 12.5 8 Sudoeste 15 Sudoeste 0 -- -- 78
2019-04-09 02:00:00 12.4 10 Sudoeste 17 Sudoeste 0 -- -- 80
2019-04-09 01:00:00 12.5 12 Sudoeste 17 Sudoeste 0 -- -- 82
2019-04-09 00:00:00 12.8 13 Oeste 17 Oeste 0 -- -- 80
2019-04-08 23:00:00 13 13 Sudoeste 20 Oeste 0 -- -- 75
2019-04-08 22:00:00 13.1 15 Sudoeste 23 Sudoeste 0 -- -- 75
2019-04-08 21:00:00 13.5 11 Sudoeste 17 Sudoeste 0 -- -- 77
2019-04-08 20:00:00 14.6 5 Noroeste 22 Norte 0 -- -- 72
2019-04-08 19:00:00 16.1 15 Norte 27 Norte 0 -- -- 66
2019-04-08 18:00:00 17 15 Norte 26 Norte 0 -- -- 63
2019-04-08 17:00:00 17.2 14 Nordeste 30 Norte 0 -- -- 63
2019-04-08 16:00:00 17.9 17 Nordeste 28 Norte 0 -- -- 62
2019-04-08 15:00:00 18.4 15 Nordeste 23 Nordeste 0 -- -- 60
2019-04-08 14:00:00 18.4 15 Nordeste 26 Nordeste 0 -- -- 61
2019-04-08 13:00:00 17.5 16 Nordeste 27 Nordeste 0 -- -- 63
2019-04-08 12:00:00 17.2 12 Nordeste 18 Este 0 -- -- 65
2019-04-08 11:00:00 16.2 5 Nordeste 13 Oeste 0 -- -- 72
2019-04-08 10:00:00 14.5 8 Oeste 17 Oeste 0 -- -- 74
2019-04-08 09:00:00 13.8 10 Oeste 16 Sudoeste 0 -- -- 75
2019-04-08 08:00:00 13.1 11 Oeste 17 Sudoeste 0 -- -- 79
2019-04-08 07:00:00 13.4 14 Sudoeste 19 Sudoeste 0 -- -- 80
2019-04-08 06:00:00 13.4 6 Oeste 17 Oeste 0 -- -- 82
2019-04-08 05:00:00 13.4 9 Oeste 15 Oeste 0 -- -- 86
2019-04-08 04:00:00 13.2 10 Sudoeste 14 Sudoeste 0.2 -- -- 87
2019-04-08 03:00:00 13.2 8 Sudoeste 17 Oeste 0 -- -- 88
2019-04-08 02:00:00 13.3 13 Sudoeste 18 Sudoeste 0.8 -- -- 90
2019-04-08 01:00:00 13.5 5 Noroeste 16 Noroeste 0.4 -- -- 90
2019-04-08 00:00:00 13.8 9 Norte 18 Norte 0 -- -- 92
2019-04-07 23:00:00 14.1 6 Oeste 14 Noroeste 0 -- -- 82
2019-04-07 22:00:00 14.1 3 Norte 18 Noroeste 0 -- -- 85
2019-04-07 21:00:00 13.8 8 Oeste 20 Norte 0 -- -- 84
2019-04-07 20:00:00 14.4 8 Norte 29 Noroeste 0 -- -- 82
2019-04-07 19:00:00 15.5 12 Norte 27 Norte 0 -- -- 76
2019-04-07 18:00:00 16.5 15 Norte 28 Norte 0 -- -- 70
2019-04-07 17:00:00 15.5 10 Norte 20 Norte 0 -- -- 84
2019-04-07 16:00:00 14.7 12 Norte 21 Norte 0 -- -- 90
2019-04-07 15:00:00 15.4 10 Nordeste 25 Nordeste 0 -- -- 82
2019-04-07 14:00:00 16.4 15 Nordeste 31 Nordeste 0 -- -- 79
2019-04-07 13:00:00 18.8 16 Nordeste 26 Nordeste 0 -- -- 62
2019-04-07 12:00:00 18.7 11 Nordeste 19 Este 0 -- -- 61
2019-04-07 11:00:00 18.4 12 Nordeste 18 Nordeste 0 -- -- 69
2019-04-07 10:00:00 16.7 5 Nordeste 10 Nordeste 0 -- -- 72
2019-04-07 09:00:00 13.7 8 Sudoeste 18 Sudoeste 0 -- -- 76
2019-04-07 08:00:00 12.1 12 Sudoeste 17 Sudoeste 0 -- -- 80
2019-04-07 07:00:00 12.4 11 Sudoeste 14 Sudoeste 0 -- -- 83
2019-04-07 06:00:00 13.2 7 Sudoeste 8 Sudoeste 0 -- -- 86
2019-04-07 05:00:00 13.4 5 Sudoeste 12 Sudoeste 0 -- -- 86
2019-04-07 04:00:00 13.5 3 Sudoeste 6 Sudoeste 0 -- -- 86
2019-04-07 03:00:00 13.6 4 Oeste 11 Oeste 0 -- -- 86
2019-04-07 02:00:00 13.6 4 Este 10 Sudoeste 0 -- -- 87
2019-04-07 01:00:00 13.3 6 Oeste 13 Oeste 0 -- -- 87
2019-04-07 00:00:00 13.5 8 Noroeste 15 Norte 0 -- -- 89
2019-04-06 23:00:00 13.5 12 Sudoeste 20 Sudoeste 0 -- -- 74
2019-04-06 22:00:00 13.4 12 Oeste 20 Oeste 0 -- -- 79
2019-04-06 21:00:00 13.5 8 Oeste 14 Noroeste 0 -- -- 80
2019-04-06 20:00:00 13.9 8 Noroeste 18 Norte 0 -- -- 77
2019-04-06 19:00:00 14.2 14 Norte 24 Norte 0 -- -- 74
2019-04-06 18:00:00 15 14 Norte 28 Norte 0 -- -- 72
2019-04-06 17:00:00 15.2 19 Norte 30 Norte 0 -- -- 69
2019-04-06 16:00:00 16 21 Norte 34 Norte 0 -- -- 67
2019-04-06 15:00:00 16.4 23 Norte 36 Norte 0 -- -- 64
2019-04-06 14:00:00 17.2 24 Norte 37 Norte 0 -- -- 66
2019-04-06 13:00:00 16.6 21 Norte 35 Norte 0 -- -- 65
2019-04-06 12:00:00 16.1 23 Norte 37 Norte 0 -- -- 66
2019-04-06 11:00:00 14.7 15 Norte 27 Norte 0 -- -- 76
2019-04-06 10:00:00 13.9 12 Noroeste 23 Noroeste 0 -- -- 69
2019-04-06 09:00:00 14.2 16 Noroeste 35 Oeste 0 -- -- 67
2019-04-06 08:00:00 12.9 15 Oeste 30 Oeste 0 -- -- 75
2019-04-06 07:00:00 12.7 14 Oeste 26 Oeste 0 -- -- 78
2019-04-06 06:00:00 12.8 13 Oeste 29 Oeste 0 -- -- 80
2019-04-06 05:00:00 12.5 17 Oeste 27 Oeste 0.2 -- -- 84
2019-04-06 04:00:00 13.2 15 Oeste 26 Oeste 0 -- -- 73
2019-04-06 03:00:00 13 14 Oeste 26 Noroeste 0 -- -- 76
2019-04-06 02:00:00 12.9 13 Noroeste 32 Norte 0.4 -- -- 82
2019-04-06 01:00:00 13.6 18 Norte 35 Norte 0 -- -- 84
2019-04-06 00:00:00 13.8 12 Noroeste 30 Norte 0 -- -- 76
2019-04-05 23:00:00 13.8 15 Noroeste 35 Noroeste 0 -- -- 80
2019-04-05 22:00:00 13.8 16 Oeste 29 Norte 0 -- -- 75
2019-04-05 21:00:00 13.8 13 Noroeste 28 Norte 0 -- -- 75
2019-04-05 20:00:00 14.1 13 Noroeste 38 Noroeste 0 -- -- 72
2019-04-05 19:00:00 14.6 17 Norte 37 Noroeste 0 -- -- 76
2019-04-05 18:00:00 15.1 15 Norte 52 Norte 0.2 -- -- 73
2019-04-05 17:00:00 15.1 15 Noroeste 33 Noroeste 0 -- -- 75
2019-04-05 16:00:00 14.7 17 Norte 37 Norte 0 -- -- 81
2019-04-05 15:00:00 15.5 13 Norte 41 Norte 0 -- -- 81
2019-04-05 14:00:00 14.4 21 Norte 40 Norte 0.2 -- -- 87
2019-04-05 13:00:00 15.9 24 Norte 43 Norte 0 -- -- 77
2019-04-05 12:00:00 16.6 28 Norte 45 Noroeste 0 -- -- 67
2019-04-05 11:00:00 16.1 18 Norte 39 Oeste 0 -- -- 73
2019-04-05 10:00:00 15.6 10 Norte 35 Noroeste 0 -- -- 72
2019-04-05 09:00:00 14 19 Noroeste 35 Noroeste 0 -- -- 71
2019-04-05 08:00:00 13.2 17 Oeste 32 Noroeste 0 -- -- 76
2019-04-05 07:00:00 13.2 17 Oeste 33 Oeste 0 -- -- 74
2019-04-05 06:00:00 12.9 16 Oeste 36 Noroeste 0 -- -- 71
2019-04-05 05:00:00 12.8 19 Oeste 32 Oeste 0 -- -- 81
2019-04-05 04:00:00 12.4 15 Oeste 30 Oeste 0.4 -- -- 86
2019-04-05 03:00:00 12.5 15 Noroeste 32 Noroeste 0.6 -- -- 88
2019-04-05 02:00:00 13.2 16 Oeste 30 Oeste 0 -- -- 73
2019-04-05 01:00:00 13.1 18 Oeste 35 Oeste 0 -- -- 81
2019-04-05 00:00:00 13.1 15 Oeste 30 Noroeste 0 -- -- 82
2019-04-04 23:00:00 13 13 Oeste 29 Oeste 0 -- -- 82
2019-04-04 22:00:00 13.1 14 Oeste 27 Oeste 0 -- -- 84
2019-04-04 21:00:00 12.7 14 Oeste 27 Oeste 0.4 -- -- 88
2019-04-04 20:00:00 13 15 Oeste 28 Noroeste 0 -- -- 85
2019-04-04 19:00:00 13.6 11 Norte 33 Norte 0 -- -- 84
2019-04-04 18:00:00 14 21 Norte 33 Norte 0 -- -- 89
2019-04-04 17:00:00 14.5 19 Norte 34 Norte 0 -- -- 85
2019-04-04 16:00:00 14.9 15 Norte 31 Norte 0 -- -- 81
2019-04-04 15:00:00 14.5 17 Norte 31 Norte 0 -- -- 82
2019-04-04 14:00:00 14.3 19 Norte 29 Norte 0 -- -- 87
2019-04-04 13:00:00 14.4 15 Norte 29 Norte 0 -- -- 88
2019-04-04 12:00:00 13.7 19 Norte 34 Nordeste 3 -- -- 98
2019-04-04 11:00:00 13.9 13 Norte 28 Norte 0.2 -- -- 85
2019-04-04 10:00:00 13.3 8 Noroeste 26 Noroeste 0.2 -- -- 90
2019-04-04 09:00:00 12.9 12 Norte 31 Norte 0.2 -- -- 93
2019-04-04 08:00:00 12.8 16 Noroeste 34 Noroeste 5.4 -- -- 91
2019-04-04 07:00:00 12.3 14 Noroeste 31 Oeste 4.6 -- -- 93
2019-04-04 06:00:00 12.7 19 Oeste 29 Oeste 0 -- -- 89
2019-04-04 05:00:00 12.7 14 Norte 30 Noroeste 1.4 -- -- 94
2019-04-04 04:00:00 12.7 17 Oeste 31 Noroeste 4.6 -- -- 90
2019-04-04 03:00:00 13.5 18 Noroeste 29 Oeste 0.2 -- -- 78
2019-04-04 02:00:00 13.2 18 Oeste 34 Oeste 0 -- -- 77
2019-04-04 01:00:00 13.6 17 Oeste 36 Oeste 0 -- -- 69
2019-04-04 00:00:00 12.7 22 Oeste 37 Oeste 0 -- -- 81
2019-04-03 23:00:00 12.5 18 Oeste 33 Oeste 0 -- -- 85
2019-04-03 22:00:00 12.3 12 Oeste 31 Oeste 0.4 -- -- 83
2019-04-03 21:00:00 13.1 21 Oeste 35 Oeste 0 -- -- 82
2019-04-03 20:00:00 13.8 21 Noroeste 39 Noroeste 0 -- -- 76
2019-04-03 19:00:00 14.3 18 Noroeste 39 Noroeste 0 -- -- 82
2019-04-03 18:00:00 14.7 18 Noroeste 43 Noroeste 0.2 -- -- 82
2019-04-03 17:00:00 15.1 23 Norte 45 Noroeste 0 -- -- 81
2019-04-03 16:00:00 16 30 Norte 45 Norte 0 -- -- 70
2019-04-03 15:00:00 17.2 23 Norte 47 Norte 0 -- -- 68
2019-04-03 14:00:00 17.5 17 Norte 50 Noroeste 0 -- -- 65
2019-04-03 13:00:00 16.8 12 Oeste 38 Norte 0 -- -- 65
2019-04-03 12:00:00 17.2 11 Noroeste 32 Oeste 0 -- -- 66
2019-04-03 11:00:00 16.4 6 Norte 42 Noroeste 0 -- -- 69
2019-04-03 10:00:00 15.1 11 Noroeste 32 Noroeste 0 -- -- 71
2019-04-03 09:00:00 13.6 10 Noroeste 37 Oeste 0 -- -- 70
2019-04-03 08:00:00 12 19 Oeste 37 Noroeste 0.4 -- -- 80
2019-04-03 07:00:00 11.9 18 Oeste 31 Noroeste 2 -- -- 87
2019-04-03 06:00:00 12.3 14 Oeste 32 Oeste 0 -- -- 76
2019-04-03 05:00:00 12.6 15 Oeste 33 Oeste 0 -- -- 72
2019-04-03 04:00:00 12.5 19 Oeste 37 Noroeste 0 -- -- 80
2019-04-03 03:00:00 11.8 15 Sudoeste 24 Sudoeste 0 -- -- 77
2019-04-03 02:00:00 11.9 13 Sudoeste 21 Sudoeste 0 -- -- 78
2019-04-03 01:00:00 11.9 13 Oeste 24 Oeste 0 -- -- 82
2019-04-03 00:00:00 11.8 12 Oeste 21 Oeste 0 -- -- 85
2019-04-02 23:00:00 12.2 13 Oeste 26 Oeste 0 -- -- 84
2019-04-02 22:00:00 12.2 12 Oeste 23 Oeste 0 -- -- 86
2019-04-02 21:00:00 12.5 9 Noroeste 18 Noroeste 0 -- -- 89
2019-04-02 20:00:00 13.1 8 Noroeste 17 Norte 0 -- -- 90
2019-04-02 19:00:00 13.5 8 Noroeste 20 Noroeste 0 -- -- 87
2019-04-02 18:00:00 13.2 9 Noroeste 16 Noroeste 1.4 -- -- 92
2019-04-02 17:00:00 13.8 10 Nordeste 23 Nordeste 0.2 -- -- 90
2019-04-02 16:00:00 13.4 10 Nordeste 20 Nordeste 0 -- -- 90
2019-04-02 15:00:00 14 6 Norte 17 Nordeste 0.2 -- -- 89
2019-04-02 14:00:00 13.2 9 Nordeste 15 Nordeste 0 -- -- 90
2019-04-02 13:00:00 13.7 4 Nordeste 15 Norte 0 -- -- 86
2019-04-02 12:00:00 14 7 Nordeste 11 Nordeste 0 -- -- 83
2019-04-02 11:00:00 12.2 3 Este 10 Este 0 -- -- 89
2019-04-02 10:00:00 11.7 6 Oeste 12 Oeste 0 -- -- 88
2019-04-02 09:00:00 10.9 9 Sudoeste 17 Sudoeste 0.2 -- -- 92
2019-04-02 08:00:00 11 8 Oeste 18 Oeste 0.2 -- -- 88
2019-04-02 07:00:00 10.9 9 Sudoeste 17 Sudoeste 0.4 -- -- 89
2019-04-02 06:00:00 11 12 Sudoeste 20 Sudoeste 2.4 -- -- 89
2019-04-02 05:00:00 11 12 Sudoeste 17 Sudoeste 1.4 -- -- 91
2019-04-02 04:00:00 10.8 13 Sudoeste 22 Sudoeste 0.8 -- -- 90
2019-04-02 03:00:00 10.9 17 Sudoeste 21 Sudoeste 0.6 -- -- 89
2019-04-02 02:00:00 11.4 11 Oeste 26 Sudoeste 0.4 -- -- 86
2019-04-02 01:00:00 11.7 11 Sudoeste 27 Sudoeste 0 -- -- 84
2019-04-02 00:00:00 11.7 17 Sudoeste 24 Sudoeste 0.6 -- -- 85
2019-04-01 23:00:00 11.4 11 Sudoeste 18 Sudoeste 1.4 -- -- 88
2019-04-01 22:00:00 11.6 11 Sudoeste 23 Sudoeste 2 -- -- 89
2019-04-01 21:00:00 12.2 5 Oeste 17 Noroeste 3 -- -- 93
2019-04-01 20:00:00 12.3 11 Norte 18 Norte 2 -- -- 93
2019-04-01 19:00:00 13.3 5 Nordeste 16 Noroeste 1.4 -- -- 94
2019-04-01 18:00:00 14 5 Norte 8 Norte 2.2 -- -- 93
2019-04-01 17:00:00 14.7 0 Calma 9 Nordeste 2 -- -- 88
2019-04-01 16:00:00 15.2 6 Este 23 Nordeste 0.2 -- -- 81
2019-04-01 15:00:00 16.2 10 Este 22 Este 0 -- -- 81
2019-04-01 14:00:00 15.9 12 Este 23 Este 0 -- -- 83
2019-04-01 13:00:00 16.3 10 Este 23 Este 0 -- -- 78
2019-04-01 12:00:00 17.6 12 Este 24 Este 0 -- -- 75
2019-04-01 11:00:00 17 10 Este 17 Este 0 -- -- 78
2019-04-01 10:00:00 15.1 3 Este 8 Sudoeste 0 -- -- 73
2019-04-01 09:00:00 13.5 6 Oeste 10 Sudoeste 0 -- -- 79
2019-04-01 08:00:00 13.1 6 Oeste 10 Oeste 0 -- -- 78
2019-04-01 07:00:00 13.2 4 Sur 15 Sudoeste 0 -- -- 80
2019-04-01 06:00:00 13.2 4 Oeste 11 Sudoeste 0 -- -- 80
2019-04-01 05:00:00 13.4 9 Sudoeste 18 Sudoeste 0 -- -- 76
2019-04-01 04:00:00 13.8 13 Oeste 20 Oeste 0 -- -- 76
2019-04-01 03:00:00 13.7 11 Oeste 20 Oeste 0 -- -- 78
2019-04-01 02:00:00 13.2 11 Oeste 14 Sudoeste 0 -- -- 76
2019-04-01 01:00:00 13.9 6 Oeste 24 Sudoeste 0 -- -- 76
2019-04-01 00:00:00 13.6 4 Sudoeste 14 Noroeste 0 -- -- 74
2019-03-31 23:00:00 13.4 9 Oeste 28 Oeste 0 -- -- 72
2019-03-31 22:00:00 14.3 13 Oeste 27 Sudoeste 0 -- -- 71
2019-03-31 21:00:00 14.5 13 Oeste 32 Noroeste 0 -- -- 71
2019-03-31 20:00:00 14.8 11 Oeste 34 Noroeste 0 -- -- 75
2019-03-31 19:00:00 15.1 17 Noroeste 37 Noroeste 0 -- -- 76
2019-03-31 18:00:00 15.6 19 Noroeste 35 Noroeste 0 -- -- 73
2019-03-31 17:00:00 14.9 19 Oeste 31 Oeste 0 -- -- 79
2019-03-31 16:00:00 15.7 14 Noroeste 30 Noroeste 0 -- -- 82
2019-03-31 15:00:00 14.9 12 Noroeste 28 Noroeste 0.2 -- -- 86
2019-03-31 14:00:00 15.1 13 Noroeste 26 Oeste 0 -- -- 82
2019-03-31 13:00:00 15.2 11 Noroeste 28 Norte 0 -- -- 85
2019-03-31 12:00:00 15.6 14 Norte 35 Noroeste 0 -- -- 82
2019-03-31 11:00:00 15.3 17 Oeste 31 Noroeste 0 -- -- 82
2019-03-31 10:00:00 15.5 21 Noroeste 37 Oeste 0 -- -- 76
2019-03-31 09:00:00 15.4 17 Noroeste 32 Noroeste 0 -- -- 73
2019-03-31 08:00:00 14.2 19 Noroeste 32 Oeste 0.2 -- -- 79
2019-03-31 07:00:00 13.7 17 Oeste 32 Noroeste 0.2 -- -- 85
2019-03-31 06:00:00 13.8 15 Oeste 38 Oeste 0 -- -- 78
2019-03-31 05:00:00 13.3 9 Oeste 29 Noroeste 0 -- -- 79
2019-03-31 04:00:00 13.8 15 Oeste 31 Oeste 0.2 -- -- 85
2019-03-31 00:00:00 14.5 22 Noroeste 39 Oeste 0 -- -- 78
2019-03-30 23:00:00 14.2 20 Oeste 31 Oeste 0 -- -- 75
2019-03-30 22:00:00 13.9 10 Oeste 27 Oeste 0 -- -- 64
2019-03-30 21:00:00 13.6 8 Sudoeste 27 Noroeste 0 -- -- 70
2019-03-30 20:00:00 14.1 11 Oeste 21 Oeste 0 -- -- 80
2019-03-30 19:00:00 15.2 5 Sudoeste 16 Norte 0 -- -- 81
2019-03-30 18:00:00 16.8 10 Norte 22 Oeste 0 -- -- 71
2019-03-30 17:00:00 17.9 11 Oeste 32 Noroeste 0 -- -- 62
2019-03-30 16:00:00 18.3 14 Norte 35 Norte 0 -- -- 59
2019-03-30 15:00:00 18 17 Norte 37 Norte 0 -- -- 66
2019-03-30 14:00:00 17.5 18 Norte 33 Norte 0 -- -- 64
2019-03-30 13:00:00 17.9 14 Norte 28 Norte 0 -- -- 65
2019-03-30 12:00:00 17.6 14 Norte 31 Norte 0 -- -- 69
2019-03-30 11:00:00 16.3 17 Norte 28 Norte 0 -- -- 71
2019-03-30 10:00:00 15.5 12 Norte 22 Norte 0 -- -- 76
2019-03-30 09:00:00 14.1 7 Norte 18 Oeste 0 -- -- 85
2019-03-30 08:00:00 12.2 11 Oeste 19 Oeste 0.4 -- -- 88
2019-03-30 07:00:00 11.9 6 Oeste 26 Oeste 0 -- -- 87
2019-03-30 06:00:00 12.1 14 Oeste 27 Noroeste 0 -- -- 79
2019-03-30 05:00:00 11.9 17 Oeste 29 Oeste 0 -- -- 78
2019-03-30 04:00:00 12.9 12 Noroeste 32 Noroeste 0 -- -- 81
2019-03-30 03:00:00 12.9 20 Oeste 35 Oeste 0 -- -- 72
2019-03-30 02:00:00 12.9 17 Oeste 30 Oeste 0 -- -- 72
2019-03-30 01:00:00 12.1 18 Sudoeste 22 Sudoeste 0 -- -- 76
2019-03-30 00:00:00 12.4 13 Oeste 25 Oeste 0 -- -- 75
2019-03-29 23:00:00 12.6 14 Oeste 23 Oeste 0 -- -- 79
2019-03-29 22:00:00 12.1 10 Oeste 18 Oeste 0 -- -- 76
2019-03-29 21:00:00 12.4 13 Sudoeste 21 Oeste 0 -- -- 78
2019-03-29 20:00:00 12.7 6 Oeste 17 Sudoeste 0 -- -- 80
2019-03-29 19:00:00 13.5 8 Oeste 21 Oeste 0 -- -- 80
2019-03-29 18:00:00 14.1 9 Oeste 22 Oeste 0 -- -- 79
2019-03-29 17:00:00 14.9 9 Oeste 18 Oeste 0 -- -- 73
2019-03-29 16:00:00 14.2 5 Oeste 21 Oeste 0 -- -- 80
2019-03-29 15:00:00 13.1 11 Oeste 24 Oeste 3.6 -- -- 81
2019-03-29 14:00:00 12.9 14 Sudoeste 29 Oeste 1 -- -- 84
2019-03-29 13:00:00 15.3 9 Oeste 28 Oeste 0 -- -- 77
2019-03-29 12:00:00 17.1 10 Norte 23 Noroeste 0 -- -- 73
2019-03-29 11:00:00 17.8 10 Oeste 22 Este 0 -- -- 67
2019-03-29 10:00:00 17.9 8 Este 15 Este 0.2 -- -- 69
2019-03-29 09:00:00 14.8 5 Sur 12 Sudoeste 0 -- -- 75
2019-03-29 08:00:00 12.9 5 Sudoeste 19 Oeste 0 -- -- 82
2019-03-29 07:00:00 11.6 12 Oeste 20 Oeste 0 -- -- 79
2019-03-29 06:00:00 12.1 14 Sudoeste 24 Sudoeste 0 -- -- 73
2019-03-29 05:00:00 12.3 13 Oeste 19 Oeste 0 -- -- 77
2019-03-29 04:00:00 12.1 14 Sudoeste 23 Oeste 0 -- -- 77
2019-03-29 03:00:00 12.3 14 Sudoeste 20 Oeste 0 -- -- 82
2019-03-29 02:00:00 12.3 12 Sudoeste 17 Sudoeste 0 -- -- 85
2019-03-29 01:00:00 12.1 14 Sudoeste 18 Sudoeste 0 -- -- 86
2019-03-29 00:00:00 12.7 12 Sudoeste 18 Sudoeste 0 -- -- 86
2019-03-28 23:00:00 12.7 9 Sudoeste 17 Sudoeste 0 -- -- 89
2019-03-28 22:00:00 12.9 10 Sudoeste 17 Sudoeste 0 -- -- 90
2019-03-28 21:00:00 13.1 12 Sudoeste 14 Sudoeste 0 -- -- 91
2019-03-28 20:00:00 13.2 5 Sudoeste 10 Sudoeste 0 -- -- 94
2019-03-28 19:00:00 13.7 4 Sudoeste 9 Sudoeste 0.4 -- -- 93
2019-03-28 18:00:00 14.2 6 Este 12 Sudoeste 6.2 -- -- 94
2019-03-28 17:00:00 14.8 4 Sudoeste 9 Este 0.2 -- -- 88
2019-03-28 16:00:00 15.5 5 Este 11 Nordeste 0.6 -- -- 87
2019-03-28 15:00:00 15.2 3 Este 11 Este 0 -- -- 87
2019-03-28 14:00:00 15.6 4 Sudeste 10 Sudeste 0 -- -- 85
2019-03-28 13:00:00 15 5 Sudeste 14 Sudoeste 1.6 -- -- 89
2019-03-28 12:00:00 14.7 7 Sudoeste 13 Sudoeste 2 -- -- 90
2019-03-28 11:00:00 15.5 6 Este 23 Nordeste 0.4 -- -- 86
2019-03-28 10:00:00 17.7 12 Este 22 Nordeste 0 -- -- 79
2019-03-28 09:00:00 16.1 5 Este 12 Sudoeste 0 -- -- 81
2019-03-28 08:00:00 13.2 9 Sudoeste 17 Sudoeste 0 -- -- 85
2019-03-28 07:00:00 12.5 12 Sudoeste 18 Sudoeste 0 -- -- 88
2019-03-28 06:00:00 12.6 12 Sudoeste 16 Oeste 0 -- -- 86
2019-03-28 05:00:00 12.7 11 Oeste 20 Oeste 0 -- -- 86
2019-03-28 04:00:00 12.8 13 Sudoeste 19 Sudoeste 0 -- -- 85
2019-03-28 03:00:00 12.9 13 Sudoeste 19 Sudoeste 0 -- -- 87
2019-03-28 02:00:00 12.9 11 Sudoeste 17 Sudoeste 0 -- -- 90
2019-03-28 01:00:00 12.9 8 Oeste 20 Oeste 3 -- -- 90
2019-03-28 00:00:00 13 15 Sudoeste 23 Sudoeste 7.2 -- -- 91
2019-03-27 23:00:00 13.8 5 Oeste 18 Sudoeste 2.2 -- -- 96
2019-03-27 22:00:00 13.2 12 Sudoeste 19 Sudoeste 7.6 -- -- 91
2019-03-27 21:00:00 13.7 10 Oeste 21 Oeste 4.6 -- -- 91
2019-03-27 20:00:00 14.2 8 Sudoeste 15 Oeste 5 -- -- 89
2019-03-27 19:00:00 15.2 3 Noroeste 12 Norte 0 -- -- 85
2019-03-27 18:00:00 15.4 4 Norte 15 Norte 0 -- -- 84
2019-03-27 17:00:00 15.8 12 Norte 19 Norte 0 -- -- 81
2019-03-27 16:00:00 16 9 Norte 20 Norte 0 -- -- 78
2019-03-27 15:00:00 16.6 9 Nordeste 18 Nordeste 0 -- -- 80
2019-03-27 14:00:00 16.5 13 Nordeste 24 Nordeste 0 -- -- 80
2019-03-27 13:00:00 19.3 16 Nordeste 27 Nordeste 0 -- -- 69
2019-03-27 12:00:00 18.5 16 Nordeste 29 Norte 0 -- -- 73
2019-03-27 11:00:00 17.3 18 Norte 32 Norte 0 -- -- 73
2019-03-27 10:00:00 17.3 17 Norte 32 Norte 0 -- -- 76
2019-03-27 09:00:00 16.4 16 Norte 24 Norte 0 -- -- 77
2019-03-27 08:00:00 14.8 8 Noroeste 26 Oeste 0 -- -- 79
2019-03-27 07:00:00 14.4 15 Oeste 26 Oeste 0 -- -- 80
2019-03-27 06:00:00 14.3 12 Oeste 23 Oeste 0 -- -- 79
2019-03-27 05:00:00 14.3 11 Norte 18 Noroeste 0 -- -- 90
2019-03-27 04:00:00 14.3 4 Oeste 14 Norte 0 -- -- 88
2019-03-27 03:00:00 14.3 8 Noroeste 18 Noroeste 0 -- -- 85
2019-03-27 02:00:00 14.7 10 Norte 25 Norte 0 -- -- 88
2019-03-27 01:00:00 14.5 9 Noroeste 23 Noroeste 0 -- -- 83
2019-03-27 00:00:00 14.6 10 Norte 25 Norte 0 -- -- 86